createdAt,value
2022-10-01T00:01:00.858Z,99199.81
2022-10-01T00:06:06.701Z,99189.50
2022-10-01T00:11:12.577Z,99195.69
2022-10-01T00:16:19.327Z,99188.50
2022-10-01T00:21:26.837Z,99185.00
2022-10-01T00:26:32.693Z,99198.31
2022-10-01T00:31:38.269Z,99203.94
2022-10-01T00:36:42.336Z,99211.56
2022-10-01T00:41:46.575Z,99208.09
2022-10-01T00:46:52.788Z,99204.41
2022-10-01T00:52:01.262Z,99201.13
2022-10-01T00:57:08.283Z,99204.97
2022-10-01T01:02:13.509Z,99204.91
2022-10-01T01:07:17.823Z,99205.06
2022-10-01T01:12:35.203Z,99211.59
2022-10-01T01:17:50.882Z,99214.41
2022-10-01T01:23:06.455Z,99208.09
2022-10-01T01:28:22.944Z,99200.31
2022-10-01T01:33:31.012Z,99203.81
2022-10-01T01:38:38.834Z,99195.00
2022-10-01T01:43:47.243Z,99201.25
2022-10-01T01:48:53.448Z,99206.78
2022-10-01T01:53:57.178Z,99213.09
2022-10-01T01:59:03.387Z,99211.38
2022-10-01T02:04:10.730Z,99200.75
2022-10-01T02:09:26.294Z,99205.97
2022-10-01T02:14:39.098Z,99201.22
2022-10-01T02:19:51.493Z,99211.59
2022-10-01T02:24:59.676Z,99211.06
2022-10-01T02:30:08.499Z,99210.06
2022-10-01T02:35:15.676Z,99219.63
2022-10-01T02:40:24.006Z,99218.09
2022-10-01T02:45:32.343Z,99215.75
2022-10-01T02:50:45.065Z,99212.13
2022-10-01T02:55:49.838Z,99217.28
2022-10-01T03:00:54.679Z,99226.28
2022-10-01T03:05:58.021Z,99225.66
2022-10-01T03:11:01.421Z,99228.19
2022-10-01T03:16:06.280Z,99231.53
2022-10-01T03:21:09.855Z,99225.56
2022-10-01T03:26:13.249Z,99240.56
2022-10-01T03:31:18.038Z,99240.63
2022-10-01T03:36:21.828Z,99236.44
2022-10-01T03:41:25.308Z,99248.81
2022-10-01T03:46:30.612Z,99247.16
2022-10-01T03:51:37.571Z,99246.59
2022-10-01T03:56:42.751Z,99250.84
2022-10-01T04:01:47.894Z,99255.13
2022-10-01T04:06:51.376Z,99256.91
2022-10-01T04:11:54.885Z,99256.13
2022-10-01T04:16:59.845Z,99254.38
2022-10-01T04:22:03.252Z,99259.53
2022-10-01T04:27:06.641Z,99256.03
2022-10-01T04:32:11.509Z,99258.72
2022-10-01T04:37:15.459Z,99251.75
2022-10-01T04:42:19.163Z,99247.38
2022-10-01T04:47:24.280Z,99243.44
2022-10-01T04:52:27.707Z,99242.19
2022-10-01T04:57:31.144Z,99250.53
2022-10-01T05:02:36.168Z,99246.38
2022-10-01T05:07:41.161Z,99239.56
2022-10-01T05:12:46.349Z,99238.91
2022-10-01T05:17:51.123Z,99255.69
2022-10-01T05:22:56.489Z,99267.22
2022-10-01T05:28:05.471Z,99266.44
2022-10-01T05:33:10.355Z,99262.94
2022-10-01T05:38:13.779Z,99267.06
2022-10-01T05:43:18.727Z,99274.28
2022-10-01T05:48:23.688Z,99282.88
2022-10-01T05:53:27.606Z,99285.97
2022-10-01T05:58:31.396Z,99294.81
2022-10-01T06:03:36.443Z,99293.63
2022-10-01T06:08:39.802Z,99291.66
2022-10-01T06:13:46.666Z,99290.50
2022-10-01T06:18:57.496Z,99301.69
2022-10-01T06:24:19.375Z,99280.59
2022-10-01T06:29:51.173Z,99287.34
2022-10-01T06:34:56.410Z,99277.16
2022-10-01T06:40:00.101Z,99268.84
2022-10-01T06:45:03.561Z,99266.66
2022-10-01T06:50:09.759Z,99274.50
2022-10-01T06:55:16.684Z,99273.59
2022-10-01T07:00:20.601Z,99279.91
2022-10-01T07:05:26.285Z,99266.56
2022-10-01T07:10:30.114Z,99271.50
2022-10-01T07:15:33.502Z,99270.63
2022-10-01T07:20:39.917Z,99270.69
2022-10-01T07:25:44.327Z,99272.63
2022-10-01T07:30:59.430Z,99262.81
2022-10-01T07:36:06.681Z,99263.97
2022-10-01T07:41:11.017Z,99262.44
2022-10-01T07:46:14.500Z,99267.53
2022-10-01T07:51:19.613Z,99265.34
2022-10-01T07:56:23.369Z,99270.25
2022-10-01T08:01:27.014Z,99274.84
2022-10-01T08:06:31.822Z,99262.38
2022-10-01T08:11:38.143Z,99255.81
2022-10-01T08:16:42.246Z,99237.97
2022-10-01T08:21:47.095Z,99240.16
2022-10-01T08:26:56.107Z,99232.47
2022-10-01T08:31:59.722Z,99204.06
2022-10-01T08:37:04.682Z,99189.13
2022-10-01T08:42:22.783Z,99176.53
2022-10-01T08:47:35.073Z,99181.66
2022-10-01T08:52:44.456Z,99177.66
2022-10-01T08:57:53.230Z,99185.97
2022-10-01T09:03:00.473Z,99196.94
2022-10-01T09:08:20.033Z,99198.00
2022-10-01T09:13:50.440Z,99181.41
2022-10-01T09:19:11.240Z,99197.00
2022-10-01T09:24:17.945Z,99191.50
2022-10-01T09:29:26.129Z,99173.50
2022-10-01T09:34:37.790Z,99147.78
2022-10-01T09:39:49.190Z,99156.22
2022-10-01T09:44:53.982Z,99155.31
2022-10-01T09:50:01.833Z,99153.63
2022-10-01T09:55:21.099Z,99147.94
2022-10-01T10:00:26.423Z,99143.25
2022-10-01T10:05:31.917Z,99125.06
2022-10-01T10:10:39.649Z,99120.09
2022-10-01T10:15:51.626Z,99129.38
2022-10-01T10:20:56.330Z,99117.19
2022-10-01T10:26:02.980Z,99116.13
2022-10-01T10:31:12.595Z,99120.22
2022-10-01T10:36:17.216Z,99109.75
2022-10-01T10:41:26.559Z,99098.00
2022-10-01T10:46:32.750Z,99105.13
2022-10-01T10:51:48.765Z,99101.81
2022-10-01T10:57:02.604Z,99092.91
2022-10-01T11:02:16.192Z,99079.38
2022-10-01T11:07:22.949Z,99075.81
2022-10-01T11:12:41.206Z,99070.69
2022-10-01T11:18:09.477Z,99049.25
2022-10-01T11:23:45.816Z,99039.22
2022-10-01T11:29:08.026Z,99025.03
2022-10-01T11:34:28.579Z,99012.91
2022-10-01T11:39:35.115Z,98998.66
2022-10-01T11:44:46.488Z,98990.44
2022-10-01T11:49:58.312Z,98997.44
2022-10-01T11:55:31.353Z,98993.91
2022-10-01T12:00:38.844Z,98986.94
2022-10-01T12:05:43.999Z,98988.91
2022-10-01T12:10:55.143Z,98988.06
2022-10-01T12:16:08.020Z,98977.97
2022-10-01T12:21:22.365Z,98978.59
2022-10-01T12:26:45.831Z,98961.84
2022-10-01T12:32:07.596Z,98961.72
2022-10-01T12:37:28.421Z,98975.38
2022-10-01T12:42:48.329Z,98969.31
2022-10-01T12:47:58.749Z,98962.72
2022-10-01T12:53:20.655Z,98963.16
2022-10-01T12:58:42.033Z,98945.16
2022-10-01T13:04:17.342Z,98925.19
2022-10-01T13:09:30.499Z,98915.66
2022-10-01T13:14:35.603Z,98912.16
2022-10-01T13:19:46.932Z,98902.50
2022-10-01T13:25:00.970Z,98897.19
2022-10-01T13:30:07.745Z,98904.56
2022-10-01T13:35:31.611Z,98909.34
2022-10-01T13:41:00.326Z,98895.16
2022-10-01T13:46:14.411Z,98890.59
2022-10-01T13:51:23.246Z,98889.91
2022-10-01T13:56:35.314Z,98885.94
2022-10-01T14:01:43.411Z,98882.97
2022-10-01T14:06:54.945Z,98872.97
2022-10-01T14:12:23.240Z,98867.25
2022-10-01T14:17:29.251Z,98869.81
2022-10-01T14:22:46.429Z,98862.66
2022-10-01T14:28:06.247Z,98863.94
2022-10-01T14:33:39.225Z,98839.25
2022-10-01T14:38:44.386Z,98838.53
2022-10-01T14:43:48.347Z,98840.13
2022-10-01T14:49:00.787Z,98831.50
2022-10-01T14:54:05.732Z,98827.09
2022-10-01T14:59:17.206Z,98811.03
2022-10-01T15:04:22.707Z,98811.34
2022-10-01T15:09:34.739Z,98790.59
2022-10-01T15:14:38.594Z,98776.06
2022-10-01T15:19:47.107Z,98775.19
2022-10-01T15:24:54.536Z,98773.53
2022-10-01T15:29:59.894Z,98766.91
2022-10-01T15:35:03.784Z,98776.19
2022-10-01T15:40:21.244Z,98776.00
2022-10-01T15:45:26.538Z,98778.09
2022-10-01T15:50:32.481Z,98770.19
2022-10-01T15:55:42.557Z,98752.09
2022-10-01T16:01:00.007Z,98742.78
2022-10-01T16:06:05.325Z,98724.97
2022-10-01T16:11:27.760Z,98718.38
2022-10-01T16:16:31.688Z,98681.91
2022-10-01T16:21:41.715Z,98673.13
2022-10-01T16:26:48.217Z,98625.28
2022-10-01T16:31:52.118Z,98650.97
2022-10-01T16:36:55.636Z,98634.91
2022-10-01T16:42:22.796Z,98616.22
2022-10-01T16:47:25.084Z,98633.13
2022-10-01T16:52:29.374Z,98638.25
2022-10-01T16:57:34.164Z,98649.84
2022-10-01T17:02:37.547Z,98658.88
2022-10-01T17:07:41.219Z,98656.22
2022-10-01T17:12:47.867Z,98641.25
2022-10-01T17:17:51.269Z,98663.41
2022-10-01T17:22:54.796Z,98660.59
2022-10-01T17:28:00.058Z,98656.66
2022-10-01T17:33:03.832Z,98643.28
2022-10-01T17:38:07.218Z,98628.34
2022-10-01T17:43:13.601Z,98641.28
2022-10-01T17:48:19.945Z,98630.00
2022-10-01T17:53:29.600Z,98617.16
2022-10-01T17:58:40.630Z,98605.09
2022-10-01T18:03:47.818Z,98604.50
2022-10-01T18:08:55.613Z,98604.91
2022-10-01T18:14:01.560Z,98589.81
2022-10-01T18:19:52.243Z,98566.88
2022-10-01T18:24:29.634Z,98562.72
2022-10-01T18:29:35.193Z,98539.69
2022-10-01T18:34:43.073Z,98513.94
2022-10-01T18:39:51.001Z,98499.44
2022-10-01T18:44:59.101Z,98487.00
2022-10-01T18:50:19.122Z,98469.94
2022-10-01T18:55:56.507Z,98449.09
2022-10-01T19:01:09.201Z,98453.78
2022-10-01T19:06:32.891Z,98457.13
2022-10-01T19:11:46.826Z,98454.91
2022-10-01T19:17:01.885Z,98441.56
2022-10-01T19:22:18.897Z,98436.09
2022-10-01T19:27:39.679Z,98438.59
2022-10-01T19:32:51.041Z,98432.69
2022-10-01T19:37:58.813Z,98419.34
2022-10-01T19:43:08.877Z,98426.59
2022-10-01T19:48:20.419Z,98419.00
2022-10-01T19:53:28.578Z,98402.00
2022-10-01T19:58:34.284Z,98389.69
2022-10-01T20:03:42.065Z,98386.53
2022-10-01T20:08:52.766Z,98386.00
2022-10-01T20:14:37.311Z,98380.03
2022-10-01T20:19:47.498Z,98363.78
2022-10-01T20:25:01.356Z,98378.31
2022-10-01T20:30:08.889Z,98366.19
2022-10-01T20:35:26.942Z,98355.56
2022-10-01T20:40:35.600Z,98356.91
2022-10-01T20:45:41.542Z,98344.28
2022-10-01T20:50:50.633Z,98339.31
2022-10-01T20:55:58.040Z,98339.31
2022-10-01T21:01:05.493Z,98340.09
2022-10-01T21:06:15.117Z,98313.78
2022-10-01T21:11:26.088Z,98309.16
2022-10-01T21:16:55.488Z,98311.22
2022-10-01T21:22:10.055Z,98307.91
2022-10-01T21:27:24.155Z,98303.72
2022-10-01T21:32:39.904Z,98307.16
2022-10-01T21:38:00.645Z,98306.63
2022-10-01T21:43:13.624Z,98294.69
2022-10-01T21:48:32.654Z,98293.06
2022-10-01T21:54:09.767Z,98286.31
2022-10-01T21:59:28.729Z,98291.34
2022-10-01T22:04:41.454Z,98275.22
2022-10-01T22:09:59.117Z,98268.63
2022-10-01T22:15:09.526Z,98267.41
2022-10-01T22:20:15.115Z,98272.13
2022-10-01T22:25:19.612Z,98258.03
2022-10-01T22:30:28.888Z,98258.25
2022-10-01T22:35:37.025Z,98261.28
2022-10-01T22:40:46.035Z,98258.00
2022-10-01T22:46:11.435Z,98250.41
2022-10-01T22:51:30.666Z,98245.22
2022-10-01T22:56:42.420Z,98245.50
2022-10-01T23:01:58.338Z,98263.97
2022-10-01T23:07:13.289Z,98278.50
2022-10-01T23:12:25.368Z,98297.28
2022-10-01T23:17:38.510Z,98380.91
2022-10-01T23:23:07.458Z,98424.75
2022-10-01T23:28:20.336Z,98475.06
2022-10-01T23:33:49.140Z,98505.38
2022-10-01T23:39:26.709Z,98452.66
2022-10-01T23:44:38.305Z,98372.50
2022-10-01T23:49:45.808Z,98338.88
2022-10-01T23:54:52.972Z,98300.78
